Bookmark and Share
Track history (hours):
 

Stena Germanica

Last reported at 2014-Apr-18 23:25 UTC. Time now 2014-Apr-19 00:00 UTC.
Position N 55°17' E 017°33'.

Length 176 m; draft 6.6 m.

Type: Ship (hazmat cat A). MMSI: 265292000.

NotesDate/timePositionNaut miles runAvg speedWind from/ knotsBaromVisibWave heightAir tempDewpointWater temp
2014-Apr-18 23:25N 55°17' E 017°33'4114.5
2014-Apr-18 20:34N 55°38' E 016°30'1514.5
2014-Apr-18 19:30N 55°45' E 016°06'1414.3
2014-Apr-18 18:33N 55°53' E 015°47'1313.3
2014-Apr-18 17:34N 56°05' E 015°34'6 5.7
2014-Apr-18 16:32N 56°10' E 015°38'0 0.0
2014-Apr-18 15:32N 56°10' E 015°38'0 0.0
2014-Apr-18 14:32N 56°10' E 015°38'0 0.0
2014-Apr-18 13:32N 56°10' E 015°38'0 0.0
2014-Apr-18 12:32N 56°10' E 015°38'0 0.0
2014-Apr-18 11:32N 56°10' E 015°38'0 0.0
2014-Apr-18 10:32N 56°10' E 015°38'0 0.0
2014-Apr-18 09:32N 56°10' E 015°38'0 0.0
2014-Apr-18 08:32N 56°10' E 015°38'0 0.0
2014-Apr-18 07:32N 56°10' E 015°38'4 3.9
2014-Apr-18 06:33N 56°07' E 015°35'1413.5
2014-Apr-18 05:33N 55°57' E 015°52'8914.4
2014-Apr-17 23:24N 55°08' E 018°03'1315.3
2014-Apr-17 22:33N 55°02' E 018°23'1615.6
2014-Apr-17 21:33N 54°52' E 018°44'1515.0
2014-Apr-17 20:33N 54°39' E 018°57'1414.0
2014-Apr-17 19:33N 54°32' E 018°36'3 3.1
2014-Apr-17 18:31N 54°33' E 018°30'1 0.7
2014-Apr-17 17:34N 54°32' E 018°31'1414.0
2014-Apr-17 16:33N 54°37' E 018°54'1616.2
2014-Apr-17 15:33N 54°51' E 018°41'1818.1
2014-Apr-17 14:34N 55°02' E 018°15'9118.2
2014-Apr-17 09:33N 55°55' E 016°05'1717.4
2014-Apr-17 08:33N 56°03' E 015°37'7 7.0
2014-Apr-17 07:31N 56°10' E 015°38'0 0.0
2014-Apr-17 06:31N 56°10' E 015°38'0 0.1
2014-Apr-17 05:34N 56°10' E 015°38'1212.3
2014-Apr-17 04:33N 55°59' E 015°48'1616.5
2014-Apr-17 03:33N 55°50' E 016°12'1716.6
2014-Apr-17 02:31N 55°40' E 016°38'1716.4
2014-Apr-17 01:30N 55°31' E 017°03'1516.2
2014-Apr-17 00:33N 55°23' E 017°26'1616.5
2014-Apr-16 23:33N 55°14' E 017°49'1716.5
2014-Apr-16 22:34N 55°05' E 018°13'1616.3
2014-Apr-16 21:33N 54°55' E 018°37'1716.8
2014-Apr-16 20:33N 54°43' E 018°56'1413.8
2014-Apr-16 19:33N 54°32' E 018°41'6 6.0
2014-Apr-16 18:31N 54°33' E 018°30'0 0.0
2014-Apr-16 17:34N 54°33' E 018°30'9 8.5
2014-Apr-16 16:33N 54°32' E 018°45'1313.5
2014-Apr-16 15:33N 54°46' E 018°50'1717.4
2014-Apr-16 14:33N 54°58' E 018°30'1817.6
2014-Apr-16 13:33N 55°08' E 018°04'7017.4
2014-Apr-16 09:32N 55°44' E 016°18'1717.0
2014-Apr-16 08:33N 55°55' E 015°56'1616.0
2014-Apr-16 07:33N 56°05' E 015°34'5 5.1
2014-Apr-16 06:31N 56°10' E 015°38'0 0.3
2014-Apr-16 05:33N 56°10' E 015°37'1312.8
2014-Apr-16 04:34N 55°59' E 015°49'8316.5
2014-Apr-15 23:31N 55°14' E 017°53'1616.8
2014-Apr-15 22:33N 55°03' E 018°14'1616.2
2014-Apr-15 21:34N 54°53' E 018°35'1616.2
2014-Apr-15 20:33N 54°42' E 018°56'1212.5
2014-Apr-15 19:34N 54°32' E 018°44'8 7.9
2014-Apr-15 18:33N 54°33' E 018°30'0 0.0
2014-Apr-15 17:33N 54°33' E 018°30'7 7.4
2014-Apr-15 16:34N 54°32' E 018°43'1313.1
2014-Apr-15 15:33N 54°44' E 018°51'1817.6
2014-Apr-15 14:33N 54°56' E 018°28'18 8.9
2014-Apr-15 12:34N 55°08' E 018°05'8917.9
2014-Apr-15 07:34N 55°57' E 015°53'1514.6
2014-Apr-15 06:34N 56°08' E 015°36'3 2.5
2014-Apr-15 05:33N 56°10' E 015°38'11 5.5
2014-Apr-15 03:34N 55°60' E 015°45'1413.5
2014-Apr-15 02:33N 55°52' E 016°05'8313.7
2014-Apr-14 20:31N 55°08' E 018°08'1414.4
2014-Apr-14 19:34N 55°00' E 018°28'1615.8
2014-Apr-14 18:34N 54°48' E 018°47'1414.2
2014-Apr-14 17:34N 54°35' E 018°53'1312.7
2014-Apr-14 16:34N 54°33' E 018°31'0 0.5
2014-Apr-14 15:33N 54°33' E 018°30'0 0.0
2014-Apr-14 14:33N 54°33' E 018°30'0 0.0
2014-Apr-14 13:33N 54°33' E 018°30'0 0.0
2014-Apr-14 11:33N 54°33' E 018°30'0 0.0
2014-Apr-14 10:33N 54°33' E 018°30'0 0.0
2014-Apr-14 09:33N 54°33' E 018°30'0 0.0
2014-Apr-14 08:33N 54°33' E 018°30'0 0.0
2014-Apr-14 07:33N 54°33' E 018°30'0 0.0
2014-Apr-14 06:33N 54°33' E 018°30'1 1.0
2014-Apr-14 05:33N 54°32' E 018°32'11013.2
2014-Apr-13 21:17N 55°48' E 016°14'1312.8
2014-Apr-13 20:18N 55°56' E 015°56'1114.4
2014-Apr-13 19:33N 56°02' E 015°40'8 8.0
2014-Apr-13 18:31N 56°10' E 015°38'0 0.0
2014-Apr-13 17:32N 56°10' E 015°38'1010.3
2014-Apr-13 16:33N 56°00' E 015°44'1716.9
2014-Apr-13 15:33N 55°50' E 016°08'8617.1
2014-Apr-13 10:33N 55°04' E 018°15'1716.7
2014-Apr-13 09:33N 54°54' E 018°38'1716.6
2014-Apr-13 08:33N 54°41' E 018°57'1413.9
2014-Apr-13 07:33N 54°32' E 018°39'5 5.1
2014-Apr-13 06:32N 54°33' E 018°30'0 0.0
2014-Apr-13 05:32N 54°33' E 018°30'7 7.6
2014-Apr-13 04:33N 54°32' E 018°43'1413.7
2014-Apr-13 03:33N 54°45' E 018°51'1817.7
2014-Apr-13 02:34N 54°58' E 018°31'1817.8
2014-Apr-13 01:33N 55°09' E 018°07'7516.8
2014-Apr-12 21:07N 55°50' E 016°16'916.9
2014-Apr-12 20:33N 55°54' E 016°01'1717.0
2014-Apr-12 19:33N 56°04' E 015°35'7 6.3
2014-Apr-12 18:31N 56°10' E 015°38'0 0.0
2014-Apr-12 17:32N 56°10' E 015°38'1010.1
2014-Apr-12 16:34N 56°01' E 015°43'1818.3
2014-Apr-12 15:34N 55°51' E 016°10'2218.3
2014-Apr-12 14:23N 55°40' E 016°44'5118.2
2014-Apr-12 11:33N 55°11' E 017°58'1818.1
2014-Apr-12 10:33N 55°01' E 018°24'1818.1
2014-Apr-12 09:34N 54°48' E 018°47'1514.9
2014-Apr-12 08:34N 54°34' E 018°51'1212.0
2014-Apr-12 07:34N 54°33' E 018°31'0 0.2
2014-Apr-12 06:33N 54°33' E 018°30'0 0.0
2014-Apr-12 05:33N 54°33' E 018°30'7 7.2
2014-Apr-12 04:34N 54°32' E 018°43'1312.7
2014-Apr-12 03:34N 54°42' E 018°56'1514.6
2014-Apr-12 02:33N 54°54' E 018°41'1514.7
2014-Apr-12 01:33N 55°03' E 018°20'1514.7
2014-Apr-12 00:31N 55°11' E 017°58'8313.9
2014-Apr-11 18:34N 55°56' E 015°54'1514.7
2014-Apr-11 17:34N 56°06' E 015°34'5 4.6
2014-Apr-11 16:33N 56°10' E 015°38'0 0.0
2014-Apr-11 15:33N 56°10' E 015°38'0 0.0
2014-Apr-11 14:33N 56°10' E 015°38'0 0.0
2014-Apr-11 13:33N 56°10' E 015°38'0 0.0
2014-Apr-11 12:33N 56°10' E 015°38'0 0.0
2014-Apr-11 11:33N 56°10' E 015°38'0 0.0
2014-Apr-11 10:33N 56°10' E 015°38'0 0.0
2014-Apr-11 09:33N 56°10' E 015°38'0 0.0
2014-Apr-11 08:33N 56°10' E 015°38'0 0.0
2014-Apr-11 07:33N 56°10' E 015°38'3 2.9
2014-Apr-11 06:33N 56°07' E 015°35'1313.0
2014-Apr-11 05:34N 55°58' E 015°51'1514.8
2014-Apr-11 04:33N 55°49' E 016°12'6014.7
2014-Apr-11 00:29N 55°18' E 017°42'1414.7
2014-Apr-10 23:33N 55°09' E 018°01'1514.8
2014-Apr-10 22:33N 55°01' E 018°22'1414.4
2014-Apr-10 21:33N 54°52' E 018°42'1414.5
2014-Apr-10 20:33N 54°41' E 018°57'1312.8
2014-Apr-10 19:34N 54°32' E 018°42'7 6.5
2014-Apr-10 18:32N 54°33' E 018°30'0 0.0
2014-Apr-10 17:34N 54°33' E 018°30'7 6.6
2014-Apr-10 16:34N 54°32' E 018°42'1413.7
2014-Apr-10 15:33N 54°45' E 018°52'1818.0
2014-Apr-10 14:34N 54°58' E 018°31'1818.1
2014-Apr-10 13:33N 55°09' E 018°05'7417.8
2014-Apr-10 09:23N 55°49' E 016°15'1517.8
2014-Apr-10 08:34N 55°57' E 015°53'1514.6
2014-Apr-10 07:33N 56°08' E 015°36'3 2.3
2014-Apr-10 06:28N 56°10' E 015°38'0 0.0
2014-Apr-10 05:33N 56°10' E 015°38'1211.7
2014-Apr-10 04:33N 55°59' E 015°47'8617.1
2014-Apr-09 23:29N 55°12' E 017°54'1516.5
2014-Apr-09 22:33N 55°03' E 018°17'1616.0
2014-Apr-09 21:33N 54°53' E 018°39'1616.4
2014-Apr-09 20:33N 54°41' E 018°57'1414.0
2014-Apr-09 19:34N 54°32' E 018°38'5 4.6
2014-Apr-09 18:32N 54°33' E 018°30'0 0.0
2014-Apr-09 17:33N 54°33' E 018°30'6 5.8
2014-Apr-09 16:33N 54°32' E 018°40'1413.9
2014-Apr-09 15:33N 54°44' E 018°53'1817.9
2014-Apr-09 14:34N 54°58' E 018°34'1817.6
2014-Apr-09 13:33N 55°07' E 018°08'8617.2
2014-Apr-09 08:33N 55°54' E 016°01'1616.2
2014-Apr-09 07:33N 56°03' E 015°37'7 7.1
2014-Apr-09 06:33N 56°10' E 015°38'0 0.2
2014-Apr-09 05:33N 56°10' E 015°38'1312.8
2014-Apr-09 04:34N 55°59' E 015°49'8717.3
2014-Apr-08 23:33N 55°11' E 017°57'  

Dump ship's entire track history

sailing weather and tide predictions

Stena Germanica — SKPZ — position and weather